Have a Safe July 4th! 

Flight Track Log - Related Links

Times and Time Zones

All times are in EDT time to prevent confusion due to time zone crossing. See the OPT429 flight status page for this flight to view local times or setup timezone preferences in your user account.

Time Position Orientation Groundspeed Altitude Reporting Facility
EDT Latitude Longitude Course Direction KTS MPH feet Rate Location/Type
Thu 03:47:43 PM 36.7942 -101.2775 68° East 261 300 7,600  Level Kansas City Center
Thu 03:48:47 PM 36.8183 -101.1922 70° East 267 307 9,200 1,680 Climbing Kansas City Center
Thu 03:49:48 PM 36.8483 -101.0794 72° East 294 338 11,100 1,645 Climbing Kansas City Center
Thu 03:50:51 PM 36.8764 -100.9706 72° East 331 381 12,600 1,632 Climbing Kansas City Center
Thu 03:51:00 PM 36.8641 -100.8257 70° East  Level FlightAware Approximate
Thu 03:51:53 PM 36.9117 -100.8431 71° East 344 396 14,500  Level Kansas City Center
Thu 03:52:00 PM 36.9005 -100.7154 67° East  Level FlightAware Approximate
Thu 03:52:54 PM 36.9428 -100.7278 71° East 358 412 16,000  Level Kansas City Center
Thu 03:53:55 PM 36.9803 -100.5903 71° East 371 427 17,700 1,536 Climbing Kansas City Center
Thu 03:54:59 PM 37.0128 -100.4697 71° East 378 435 19,200 1,584 Climbing Kansas City Center
Thu 03:56:00 PM 37.0514 -100.3275 71° East 383 441 21,000 1,584 Climbing Kansas City Center
Thu 03:57:04 PM 37.0839 -100.2031 72° East 388 447 22,500 1,645 Climbing Kansas City Center
Thu 03:58:04 PM 37.1225 -100.0597 71° East 388 447 24,400 1,672 Climbing Kansas City Center
Thu 03:59:06 PM 37.1547 -99.9350 72° East 389 448 25,900 1,584 Climbing Kansas City Center
Thu 04:00:09 PM 37.1928 -99.7892 72° East 392 451 27,700 1,645 Climbing Kansas City Center
Thu 04:01:10 PM 37.2261 -99.6631 72° East 395 455 29,300 1,632 Climbing Kansas City Center
Thu 04:02:14 PM 37.2642 -99.5128 72° East 399 459 31,100 1,488 Climbing Kansas City Center
Thu 04:03:15 PM 37.2983 -99.3844 71° East 411 473 32,400 1,452 Climbing Kansas City Center
Thu 04:04:18 PM 37.3372 -99.2353 72° East 416 479 34,100 1,248 Climbing Kansas City Center
Thu 04:05:20 PM 37.3717 -99.0958 73° East 417 480 35,000 439 Climbing Kansas City Center
Thu 04:06:21 PM 37.4089 -98.9472 72° East 436 502 35,000  Level Kansas City Center
Thu 04:07:24 PM 37.4475 -98.7981 72° East 447 514 35,000  Level Kansas City Center
Thu 04:08:27 PM 37.4844 -98.6506 72° East 447 514 35,000  Level Kansas City Center
Thu 04:09:27 PM 37.5281 -98.4736 73° East 446 513 35,000  Level Kansas City Center
Thu 04:10:31 PM 37.5647 -98.3281 72° East 444 511 35,000  Level Kansas City Center
Thu 04:11:31 PM 37.6003 -98.1828 73° East 439 505 35,000  Level Kansas City Center
Thu 04:12:35 PM 37.6378 -98.0328 72° East 441 507 35,000  Level Kansas City Center
Thu 04:13:36 PM 37.6758 -97.8786 73° East 450 518 35,000  Level Kansas City Center
Thu 04:14:37 PM 37.7192 -97.6853 74° East 467 537 35,000  Level Kansas City Center
Thu 04:15:41 PM 37.7644 -97.5325 69° East 464 534 35,000  Level Kansas City Center
Thu 04:16:43 PM 37.8158 -97.3992 64° Northeast 461 531 35,000  Level Kansas City Center
Thu 04:17:43 PM 37.8711 -97.2558 64° Northeast 460 529 35,000  Level Kansas City Center
Thu 04:18:46 PM 37.9358 -97.0864 64° Northeast 453 521 35,000  Level Kansas City Center
Thu 04:19:48 PM 37.9906 -96.9444 64° Northeast 451 519 35,000  Level Kansas City Center
Thu 04:20:52 PM 38.0436 -96.8022 65° Northeast 450 518 35,000  Level Kansas City Center
Thu 04:21:53 PM 38.0967 -96.6606 65° Northeast 448 516 35,000  Level Kansas City Center
Thu 04:22:56 PM 38.1503 -96.5189 64° Northeast 448 516 35,000 -677 Level Kansas City Center
Thu 04:23:57 PM 38.2083 -96.3636 65° Northeast 446 513 33,600 -2,146 Descending Kansas City Center
Thu 04:24:59 PM 38.2583 -96.2256 65° Northeast 437 503 30,600 -2,928 Descending Kansas City Center
Thu 04:26:02 PM 38.3181 -96.1042 58° Northeast 409 471 27,500 -3,242 Descending Kansas City Center
Thu 04:27:03 PM 38.4089 -95.9756 48° Northeast 405 466 23,900 -3,098 Descending Kansas City Center
Thu 04:28:04 PM 38.4861 -95.8689 47° Northeast 409 471 21,200 -1,403 Descending Kansas City Center
Thu 04:29:07 PM 38.5567 -95.7700 48° Northeast 383 441 21,000 -532 Descending Kansas City Center
Thu 04:30:08 PM 38.6306 -95.6683 47° Northeast 386 444 20,100 -1,667 Descending Kansas City Center
Thu 04:31:13 PM 38.7033 -95.5644 48° Northeast 392 451 17,500 -2,476 Descending Kansas City Center
Thu 04:32:14 PM 38.7764 -95.4619 48° Northeast 392 451 14,900 -2,876 Descending Kansas City Center
Thu 04:33:14 PM 38.8547 -95.3517 48° Northeast 349 402 11,700 -2,341 Descending Kansas City Center
Thu 04:34:17 PM 38.8931 -95.2511 64° Northeast 320 368 10,100 -1,039 Descending Kansas City Center
Thu 04:35:21 PM 38.9256 -95.1553 66° East 300 345 9,500 -1,306 Descending Kansas City Center
Thu 04:36:21 PM 38.9597 -95.0581 66° East 300 345 7,400 -1,574 Descending Kansas City Center
Thu 04:37:23 PM 38.9978 -94.9519 65° Northeast 280 322 6,300 -1,440 Descending Kansas City Center
Thu 04:38:26 PM 39.0328 -94.8756 59° Northeast 261 300 4,400 -1,597 Descending Kansas City Center
Thu 04:39:27 PM 39.0406 -94.7889 83° East 249 287 3,000 -677 Descending Kansas City Center
Thu 04:40:30 PM 39.0472 -94.7125 84° East 220 253 3,000 -331 Level Kansas City Center
Thu 04:41:34 PM 39.0481 -94.6472 89° East 185 213 2,300 -576 Descending Kansas City Center
Thu 04:42:35 PM 39.0706 -94.6083 53° Northeast 142 163 1,800 -595 Descending Kansas City Center
Thu 04:43:35 PM 39.1056 -94.5975 14° North 129 148 1,100 -700 Descending Kansas City Center
Thu 04:45:00 PM 39.1167 -94.5833 108° East  Level FlightAware Approximate

Login

Don't have an account? Register now (free) for customized features, flight alerts, and more!